Search METAR Data

METAR Data for ENAT:

ENAT 301320Z 27005KT 180V320 CAVOK 26/08 Q1009 RMK WIND 700FT 22014KT